United States > Florida

Lantana, FL

1:18 PM EDT on July 07, 2015 (GMT -0400)
Lantana | | Change Station
CLOSE
Current Station
Personal Weather Station
Location: Lantana, FL
Elevation: 16 ft
Nearby Weather Stations

Elev 16 ft 26.58 °N, 80.06 °W | Updated 3 minutes ago

Mostly Cloudy
Mostly Cloudy
81.9 °F
Feels Like 88 °F
N
0.0
Wind Variable Wind from ESE
Gusts 5.0 mph

Today
High -- | Low -- °F
--% Chance of Precip.
Yesterday
High -- | Low -- °F
Precip. -- in
6:32 AM 8:17 PM
Waning Gibbous, 63% visible
Pressure 30.19 in
Visibility 10.0 miles
Clouds Scattered Clouds 2000 ft
Mostly Cloudy 2700 ft
Mostly Cloudy 3700 ft
Heat Index 88 °F
Dew Point 74 °F
Humidity 77%
Rainfall 0.03 in
Snow Depth Not available.
UV 8 out of 12
Pollen 4.20 out of 12
Air Quality Not available.
Flu Activity Not available.
METAR KPBI 071653Z 09011KT 10SM TS SCT020 BKN027CB BKN037 28/23 A3019 RMK AO2 SLP224 OCNL LTGICCG OHD-ALQDS TS OHD-ALQDS MOV W CB DSNT SW-NW T02830233

More Conditions Fewer Conditions

Pressure 30.19 in
Visibility 10.0 miles
Clouds Scattered Clouds 2000 ft
Mostly Cloudy 2700 ft
Mostly Cloudy 3700 ft
Heat Index 88 °F
Dew Point 74 °F
Humidity 77%
Rainfall 0.03 in
Snow Depth Not available.
UV 8 out of 12
Pollen 4.20 out of 12
Air Quality Not available.
Flu Activity Not available.
METAR KPBI 071653Z 09011KT 10SM TS SCT020 BKN027CB BKN037 28/23 A3019 RMK AO2 SLP224 OCNL LTGICCG OHD-ALQDS TS OHD-ALQDS MOV W CB DSNT SW-NW T02830233

More Conditions Fewer Conditions

10-Day Weather Forecast

×

Almanac

Astronomy

Jul. 07, 2015 Rise Set
Actual Time
Civil Twilight
Nautical Twilight
Astronomical Twilight
Moon
Length of Visible Light
Length of Day
Tomorrow will be .
, % of the Moon is Illuminated

Today's Extremes

State Highs State Lows

Community

WunderPhotos

Upload Photos

1,835,857 photos uploaded!

WunderBlogs® & News

Nearby

Air Quality

  Air Quality AQ Index Pollutant
Not available.

Snow Depth

Station Depth Elevation

Earthquake Activity

City Distance Mag. Time & Date
Minimum magnitude displayed is 2.5.

Coastal Water Temperatures

Place Temperature

Stations

Nearby Weather Stations

Station Location Temp. Windchill Dew Point Humidity Wind Precip. Elev Updated Type